sensor_id;sensor_type;location;lat;lon;timestamp;pressure;altitude;pressure_sealevel;temperature;humidity
72721;BME280;60835;50.974;10.322;2023-02-01T00:00:15;97864.25;;;3.99;100.00
72721;BME280;60835;50.974;10.322;2023-02-01T00:02:42;97854.69;;;4.09;100.00
72721;BME280;60835;50.974;10.322;2023-02-01T00:05:10;97857.63;;;4.15;100.00
72721;BME280;60835;50.974;10.322;2023-02-01T00:07:37;97869.63;;;4.18;100.00
72721;BME280;60835;50.974;10.322;2023-02-01T00:10:05;97881.19;;;4.15;100.00
72721;BME280;60835;50.974;10.322;2023-02-01T00:12:32;97879.00;;;4.20;100.00
72721;BME280;60835;50.974;10.322;2023-02-01T00:14:59;97886.72;;;4.22;100.00
72721;BME280;60835;50.974;10.322;2023-02-01T00:17:26;97893.09;;;4.29;100.00
72721;BME280;60835;50.974;10.322;2023-02-01T00:19:52;97900.59;;;4.34;100.00
72721;BME280;60835;50.974;10.322;2023-02-01T00:22:18;97900.75;;;4.21;100.00
72721;BME280;60835;50.974;10.322;2023-02-01T00:24:45;97910.28;;;4.22;100.00
72721;BME280;60835;50.974;10.322;2023-02-01T00:27:12;97922.88;;;4.28;100.00
72721;BME280;60835;50.974;10.322;2023-02-01T00:29:44;97916.22;;;4.24;100.00
72721;BME280;60835;50.974;10.322;2023-02-01T00:32:12;97908.25;;;4.25;100.00
72721;BME280;60835;50.974;10.322;2023-02-01T00:34:38;97904.16;;;4.32;100.00
72721;BME280;60835;50.974;10.322;2023-02-01T00:37:05;97918.09;;;4.33;100.00
72721;BME280;60835;50.974;10.322;2023-02-01T00:39:31;97923.13;;;4.25;100.00
72721;BME280;60835;50.974;10.322;2023-02-01T00:41:59;97924.22;;;4.22;100.00
72721;BME280;60835;50.974;10.322;2023-02-01T00:44:26;97921.91;;;4.29;100.00
72721;BME280;60835;50.974;10.322;2023-02-01T00:46:53;97918.53;;;4.38;100.00
72721;BME280;60835;50.974;10.322;2023-02-01T00:49:19;97935.34;;;4.36;100.00
72721;BME280;60835;50.974;10.322;2023-02-01T00:51:46;97934.75;;;4.32;100.00
72721;BME280;60835;50.974;10.322;2023-02-01T00:54:12;97942.78;;;4.40;100.00
72721;BME280;60835;50.974;10.322;2023-02-01T00:56:39;97949.69;;;4.41;100.00
72721;BME280;60835;50.974;10.322;2023-02-01T00:59:05;97946.09;;;4.42;100.00
72721;BME280;60835;50.974;10.322;2023-02-01T01:01:32;97966.56;;;4.48;100.00
72721;BME280;60835;50.974;10.322;2023-02-01T01:03:59;97947.59;;;4.35;100.00
72721;BME280;60835;50.974;10.322;2023-02-01T01:06:28;97958.50;;;4.40;100.00
72721;BME280;60835;50.974;10.322;2023-02-01T01:08:57;97963.00;;;4.49;100.00
72721;BME280;60835;50.974;10.322;2023-02-01T01:11:30;97971.69;;;4.50;100.00
72721;BME280;60835;50.974;10.322;2023-02-01T01:13:58;97975.84;;;4.52;100.00
72721;BME280;60835;50.974;10.322;2023-02-01T01:16:26;97978.66;;;4.60;100.00
72721;BME280;60835;50.974;10.322;2023-02-01T01:18:53;97980.53;;;4.58;100.00
72721;BME280;60835;50.974;10.322;2023-02-01T01:21:21;97998.88;;;4.58;100.00
72721;BME280;60835;50.974;10.322;2023-02-01T01:23:47;97992.69;;;4.59;100.00
72721;BME280;60835;50.974;10.322;2023-02-01T01:26:17;97995.56;;;4.56;100.00
72721;BME280;60835;50.974;10.322;2023-02-01T01:28:45;98012.72;;;4.60;100.00
72721;BME280;60835;50.974;10.322;2023-02-01T01:31:13;98014.59;;;4.58;100.00
72721;BME280;60835;50.974;10.322;2023-02-01T01:33:40;98007.19;;;4.63;100.00
72721;BME280;60835;50.974;10.322;2023-02-01T01:36:08;98014.09;;;4.64;100.00
72721;BME280;60835;50.974;10.322;2023-02-01T01:38:41;98011.19;;;4.58;100.00
72721;BME280;60835;50.974;10.322;2023-02-01T01:41:13;98008.56;;;4.58;100.00
72721;BME280;60835;50.974;10.322;2023-02-01T01:44:01;98006.03;;;4.56;100.00
72721;BME280;60835;50.974;10.322;2023-02-01T01:46:37;98004.13;;;4.58;100.00
72721;BME280;60835;50.974;10.322;2023-02-01T01:49:24;97996.66;;;4.54;100.00
72721;BME280;60835;50.974;10.322;2023-02-01T01:52:01;97996.06;;;4.50;100.00
72721;BME280;60835;50.974;10.322;2023-02-01T01:54:41;98006.81;;;4.47;100.00
72721;BME280;60835;50.974;10.322;2023-02-01T01:57:14;98006.81;;;4.47;100.00
72721;BME280;60835;50.974;10.322;2023-02-01T01:59:46;97997.75;;;4.51;100.00
72721;BME280;60835;50.974;10.322;2023-02-01T02:02:15;97999.53;;;4.51;100.00
72721;BME280;60835;50.974;10.322;2023-02-01T02:04:42;97988.22;;;4.50;100.00
72721;BME280;60835;50.974;10.322;2023-02-01T02:07:16;97988.34;;;4.49;100.00
72721;BME280;60835;50.974;10.322;2023-02-01T02:09:44;97976.09;;;4.49;100.00
72721;BME280;60835;50.974;10.322;2023-02-01T02:12:25;97977.53;;;4.42;100.00
72721;BME280;60835;50.974;10.322;2023-02-01T02:14:51;97967.06;;;4.42;100.00
72721;BME280;60835;50.974;10.322;2023-02-01T02:23:19;97975.06;;;4.41;100.00
72721;BME280;60835;50.974;10.322;2023-02-01T02:26:19;97969.97;;;4.39;100.00
72721;BME280;60835;50.974;10.322;2023-02-01T02:30:10;97973.78;;;4.35;100.00
72721;BME280;60835;50.974;10.322;2023-02-01T02:34:56;97957.88;;;4.27;100.00
72721;BME280;60835;50.974;10.322;2023-02-01T02:37:33;97949.16;;;4.26;100.00
72721;BME280;60835;50.974;10.322;2023-02-01T02:43:05;97937.31;;;4.22;100.00
72721;BME280;60835;50.974;10.322;2023-02-01T02:46:07;97924.16;;;4.13;100.00
72721;BME280;60835;50.974;10.322;2023-02-01T02:51:53;97913.53;;;3.94;100.00
72721;BME280;60835;50.974;10.322;2023-02-01T02:54:43;97912.22;;;3.67;100.00
72721;BME280;60835;50.974;10.322;2023-02-01T02:57:20;97878.97;;;3.47;100.00
72721;BME280;60835;50.974;10.322;2023-02-01T03:00:12;97850.00;;;3.39;100.00
72721;BME280;60835;50.974;10.322;2023-02-01T03:03:00;97818.81;;;3.16;100.00
72721;BME280;60835;50.974;10.322;2023-02-01T03:05:47;97790.09;;;3.36;100.00
72721;BME280;60835;50.974;10.322;2023-02-01T03:08:30;97772.63;;;3.37;100.00
72721;BME280;60835;50.974;10.322;2023-02-01T03:11:05;97749.94;;;3.37;100.00
72721;BME280;60835;50.974;10.322;2023-02-01T03:13:38;97730.31;;;3.43;100.00
72721;BME280;60835;50.974;10.322;2023-02-01T03:19:10;97699.28;;;3.49;100.00
72721;BME280;60835;50.974;10.322;2023-02-01T03:21:45;97684.53;;;3.48;100.00
72721;BME280;60835;50.974;10.322;2023-02-01T03:24:16;97663.34;;;3.51;100.00
72721;BME280;60835;50.974;10.322;2023-02-01T03:26:53;97643.44;;;3.60;100.00
72721;BME280;60835;50.974;10.322;2023-02-01T03:29:29;97629.28;;;3.62;100.00
72721;BME280;60835;50.974;10.322;2023-02-01T03:31:58;97619.75;;;3.61;100.00
72721;BME280;60835;50.974;10.322;2023-02-01T03:34:25;97612.34;;;3.66;100.00
72721;BME280;60835;50.974;10.322;2023-02-01T03:36:58;97620.38;;;3.75;100.00
72721;BME280;60835;50.974;10.322;2023-02-01T03:39:37;97622.72;;;3.78;100.00
72721;BME280;60835;50.974;10.322;2023-02-01T03:42:09;97614.72;;;3.79;100.00
72721;BME280;60835;50.974;10.322;2023-02-01T03:44:53;97615.75;;;3.88;100.00
72721;BME280;60835;50.974;10.322;2023-02-01T03:47:21;97636.16;;;3.94;100.00
72721;BME280;60835;50.974;10.322;2023-02-01T03:49:52;97657.94;;;4.04;100.00
72721;BME280;60835;50.974;10.322;2023-02-01T03:52:24;97681.09;;;4.08;100.00
72721;BME280;60835;50.974;10.322;2023-02-01T03:54:53;97693.81;;;4.13;100.00
72721;BME280;60835;50.974;10.322;2023-02-01T03:57:25;97700.16;;;4.20;100.00
72721;BME280;60835;50.974;10.322;2023-02-01T03:59:53;97705.38;;;4.20;100.00
72721;BME280;60835;50.974;10.322;2023-02-01T04:02:19;97719.44;;;4.19;100.00
72721;BME280;60835;50.974;10.322;2023-02-01T04:04:46;97737.63;;;4.20;100.00
72721;BME280;60835;50.974;10.322;2023-02-01T04:07:12;97745.66;;;4.28;100.00
72721;BME280;60835;50.974;10.322;2023-02-01T04:09:39;97764.09;;;4.27;100.00
72721;BME280;60835;50.974;10.322;2023-02-01T04:12:06;97768.81;;;4.23;100.00
72721;BME280;60835;50.974;10.322;2023-02-01T04:14:32;97771.28;;;4.25;100.00
72721;BME280;60835;50.974;10.322;2023-02-01T04:16:59;97777.88;;;4.29;100.00
72721;BME280;60835;50.974;10.322;2023-02-01T04:19:26;97777.09;;;4.28;100.00
72721;BME280;60835;50.974;10.322;2023-02-01T04:21:53;97783.84;;;4.31;100.00
72721;BME280;60835;50.974;10.322;2023-02-01T04:24:19;97793.09;;;4.35;100.00
72721;BME280;60835;50.974;10.322;2023-02-01T04:26:45;97787.84;;;4.35;100.00
72721;BME280;60835;50.974;10.322;2023-02-01T04:29:12;97797.38;;;4.36;100.00
72721;BME280;60835;50.974;10.322;2023-02-01T04:34:06;97796.41;;;4.37;100.00
72721;BME280;60835;50.974;10.322;2023-02-01T04:36:33;97808.78;;;4.35;100.00
72721;BME280;60835;50.974;10.322;2023-02-01T04:38:59;97803.31;;;4.38;100.00
72721;BME280;60835;50.974;10.322;2023-02-01T04:41:27;97796.69;;;4.34;100.00
72721;BME280;60835;50.974;10.322;2023-02-01T04:43:53;97814.72;;;4.37;100.00
72721;BME280;60835;50.974;10.322;2023-02-01T04:46:20;97794.41;;;4.20;100.00
72721;BME280;60835;50.974;10.322;2023-02-01T04:48:47;97807.59;;;4.39;100.00
72721;BME280;60835;50.974;10.322;2023-02-01T04:51:13;97808.28;;;4.41;100.00
72721;BME280;60835;50.974;10.322;2023-02-01T04:53:41;97807.09;;;4.24;100.00
72721;BME280;60835;50.974;10.322;2023-02-01T04:56:09;97802.44;;;4.28;100.00
72721;BME280;60835;50.974;10.322;2023-02-01T04:58:36;97790.19;;;4.28;100.00
72721;BME280;60835;50.974;10.322;2023-02-01T05:01:03;97773.47;;;4.20;100.00
72721;BME280;60835;50.974;10.322;2023-02-01T05:03:32;97802.72;;;4.35;100.00
72721;BME280;60835;50.974;10.322;2023-02-01T05:06:02;97802.34;;;4.39;100.00
72721;BME280;60835;50.974;10.322;2023-02-01T05:08:32;97796.41;;;4.37;100.00
72721;BME280;60835;50.974;10.322;2023-02-01T05:10:58;97804.00;;;4.40;100.00
72721;BME280;60835;50.974;10.322;2023-02-01T05:13:25;97805.78;;;4.40;100.00
72721;BME280;60835;50.974;10.322;2023-02-01T05:16:11;97803.31;;;4.38;100.00
72721;BME280;60835;50.974;10.322;2023-02-01T05:18:37;97805.22;;;4.36;100.00
72721;BME280;60835;50.974;10.322;2023-02-01T05:21:08;97806.63;;;4.40;100.00
72721;BME280;60835;50.974;10.322;2023-02-01T05:23:36;97812.00;;;4.39;100.00
72721;BME280;60835;50.974;10.322;2023-02-01T05:26:22;97820.69;;;4.39;100.00
72721;BME280;60835;50.974;10.322;2023-02-01T05:28:49;97815.16;;;4.42;100.00
72721;BME280;60835;50.974;10.322;2023-02-01T05:31:17;97823.75;;;4.44;100.00
72721;BME280;60835;50.974;10.322;2023-02-01T05:33:43;97814.22;;;4.43;100.00
72721;BME280;60835;50.974;10.322;2023-02-01T05:36:10;97814.47;;;4.40;100.00
72721;BME280;60835;50.974;10.322;2023-02-01T05:38:37;97819.59;;;4.42;100.00
72721;BME280;60835;50.974;10.322;2023-02-01T05:41:03;97797.19;;;4.28;100.00
72721;BME280;60835;50.974;10.322;2023-02-01T05:43:30;97818.94;;;4.49;100.00
72721;BME280;60835;50.974;10.322;2023-02-01T05:45:56;97819.03;;;4.48;100.00
72721;BME280;60835;50.974;10.322;2023-02-01T05:48:23;97828.66;;;4.38;100.00
72721;BME280;60835;50.974;10.322;2023-02-01T05:50:49;97838.03;;;4.40;100.00
72721;BME280;60835;50.974;10.322;2023-02-01T05:53:16;97850.44;;;4.38;100.00
72721;BME280;60835;50.974;10.322;2023-02-01T05:55:42;97846.47;;;4.44;100.00
72721;BME280;60835;50.974;10.322;2023-02-01T05:58:09;97827.78;;;4.27;100.00
72721;BME280;60835;50.974;10.322;2023-02-01T06:00:36;97865.91;;;4.41;100.00
72721;BME280;60835;50.974;10.322;2023-02-01T06:03:02;97849.31;;;4.31;100.00
72721;BME280;60835;50.974;10.322;2023-02-01T06:05:32;97851.19;;;4.29;100.00
72721;BME280;60835;50.974;10.322;2023-02-01T06:07:59;97868.00;;;4.47;100.00
72721;BME280;60835;50.974;10.322;2023-02-01T06:10:26;97880.00;;;4.50;100.00
72721;BME280;60835;50.974;10.322;2023-02-01T06:12:52;97869.88;;;4.36;100.00
72721;BME280;60835;50.974;10.322;2023-02-01T06:15:19;97887.47;;;4.54;100.00
72721;BME280;60835;50.974;10.322;2023-02-01T06:17:46;97887.97;;;4.48;100.00
72721;BME280;60835;50.974;10.322;2023-02-01T06:20:14;97895.97;;;4.47;100.00
72721;BME280;60835;50.974;10.322;2023-02-01T06:22:42;97901.78;;;4.50;100.00
72721;BME280;60835;50.974;10.322;2023-02-01T06:25:09;97856.31;;;4.30;100.00
72721;BME280;60835;50.974;10.322;2023-02-01T06:27:37;97905.81;;;4.54;100.00
72721;BME280;60835;50.974;10.322;2023-02-01T06:30:05;97906.31;;;4.48;100.00
72721;BME280;60835;50.974;10.322;2023-02-01T06:32:32;97902.59;;;4.51;100.00
72721;BME280;60835;50.974;10.322;2023-02-01T06:34:59;97909.63;;;4.50;100.00
72721;BME280;60835;50.974;10.322;2023-02-01T06:37:26;97901.97;;;4.38;100.00
72721;BME280;60835;50.974;10.322;2023-02-01T06:39:56;97894.63;;;4.52;100.00
72721;BME280;60835;50.974;10.322;2023-02-01T06:42:23;97907.28;;;4.47;100.00
72721;BME280;60835;50.974;10.322;2023-02-01T06:44:49;97917.78;;;4.47;100.00
72721;BME280;60835;50.974;10.322;2023-02-01T06:47:19;97909.63;;;4.50;100.00
72721;BME280;60835;50.974;10.322;2023-02-01T06:49:45;97930.13;;;4.45;100.00
72721;BME280;60835;50.974;10.322;2023-02-01T06:52:12;97941.91;;;4.51;100.00
72721;BME280;60835;50.974;10.322;2023-02-01T06:54:39;97929.63;;;4.51;100.00
72721;BME280;60835;50.974;10.322;2023-02-01T06:57:06;97935.81;;;4.50;100.00
72721;BME280;60835;50.974;10.322;2023-02-01T06:59:32;97918.13;;;4.43;100.00
72721;BME280;60835;50.974;10.322;2023-02-01T07:01:59;97959.41;;;4.50;100.00
72721;BME280;60835;50.974;10.322;2023-02-01T07:04:26;97959.28;;;4.52;100.00
72721;BME280;60835;50.974;10.322;2023-02-01T07:06:52;97955.00;;;4.51;100.00
72721;BME280;60835;50.974;10.322;2023-02-01T07:09:22;97941.84;;;4.41;100.00
72721;BME280;60835;50.974;10.322;2023-02-01T07:11:49;97961.75;;;4.53;100.00
72721;BME280;60835;50.974;10.322;2023-02-01T07:14:16;97949.19;;;4.47;100.00
72721;BME280;60835;50.974;10.322;2023-02-01T07:16:42;97944.72;;;4.38;100.00
72721;BME280;60835;50.974;10.322;2023-02-01T07:19:09;97965.81;;;4.57;100.00
72721;BME280;60835;50.974;10.322;2023-02-01T07:21:35;97976.28;;;4.57;100.00
72721;BME280;60835;50.974;10.322;2023-02-01T07:24:02;97982.63;;;4.55;100.00
72721;BME280;60835;50.974;10.322;2023-02-01T07:26:29;97990.06;;;4.59;100.00
72721;BME280;60835;50.974;10.322;2023-02-01T07:28:55;97986.19;;;4.54;100.00
72721;BME280;60835;50.974;10.322;2023-02-01T07:31:22;97970.16;;;4.47;100.00
72721;BME280;60835;50.974;10.322;2023-02-01T07:33:49;97994.47;;;4.59;100.00
72721;BME280;60835;50.974;10.322;2023-02-01T07:36:19;98003.19;;;4.59;100.00
72721;BME280;60835;50.974;10.322;2023-02-01T07:38:49;98004.41;;;4.55;100.00
72721;BME280;60835;50.974;10.322;2023-02-01T07:41:17;98004.97;;;4.59;100.00
72721;BME280;60835;50.974;10.322;2023-02-01T07:43:43;98014.25;;;4.63;100.00
72721;BME280;60835;50.974;10.322;2023-02-01T07:46:10;97995.97;;;4.52;100.00
72721;BME280;60835;50.974;10.322;2023-02-01T07:48:37;98030.06;;;4.61;100.00
72721;BME280;60835;50.974;10.322;2023-02-01T07:51:13;98036.97;;;4.62;100.00
72721;BME280;60835;50.974;10.322;2023-02-01T07:53:40;98038.91;;;4.60;100.00
72721;BME280;60835;50.974;10.322;2023-02-01T07:56:15;98029.56;;;4.67;100.00
72721;BME280;60835;50.974;10.322;2023-02-01T07:58:43;98038.19;;;4.58;100.00
72721;BME280;60835;50.974;10.322;2023-02-01T08:01:14;98026.75;;;4.59;100.00
72721;BME280;60835;50.974;10.322;2023-02-01T08:03:49;98039.16;;;4.57;100.00
72721;BME280;60835;50.974;10.322;2023-02-01T08:06:17;98024.84;;;4.61;100.00
72721;BME280;60835;50.974;10.322;2023-02-01T08:08:46;98038.91;;;4.60;100.00
72721;BME280;60835;50.974;10.322;2023-02-01T08:11:13;98045.09;;;4.59;100.00
72721;BME280;60835;50.974;10.322;2023-02-01T08:13:40;98049.09;;;4.63;100.00
72721;BME280;60835;50.974;10.322;2023-02-01T08:16:08;98049.03;;;4.54;100.00
72721;BME280;60835;50.974;10.322;2023-02-01T08:18:37;98050.97;;;4.52;100.00
72721;BME280;60835;50.974;10.322;2023-02-01T08:21:06;98048.00;;;4.45;100.00
72721;BME280;60835;50.974;10.322;2023-02-01T08:23:34;98017.59;;;4.33;100.00
72721;BME280;60835;50.974;10.322;2023-02-01T08:26:27;98037.59;;;4.34;100.00
72721;BME280;60835;50.974;10.322;2023-02-01T08:28:56;98013.09;;;4.24;100.00
72721;BME280;60835;50.974;10.322;2023-02-01T08:31:24;98014.06;;;4.23;100.00
72721;BME280;60835;50.974;10.322;2023-02-01T08:33:54;98015.41;;;4.17;100.00
72721;BME280;60835;50.974;10.322;2023-02-01T08:36:22;98013.16;;;4.13;100.00
72721;BME280;60835;50.974;10.322;2023-02-01T08:38:48;97989.13;;;4.08;100.00
72721;BME280;60835;50.974;10.322;2023-02-01T08:41:18;97948.69;;;4.01;100.00
72721;BME280;60835;50.974;10.322;2023-02-01T08:43:45;97939.94;;;3.91;100.00
72721;BME280;60835;50.974;10.322;2023-02-01T08:46:12;97919.44;;;3.75;100.00
72721;BME280;60835;50.974;10.322;2023-02-01T08:48:39;97897.41;;;3.78;100.00
72721;BME280;60835;50.974;10.322;2023-02-01T08:51:08;97859.31;;;3.85;100.00
72721;BME280;60835;50.974;10.322;2023-02-01T08:53:37;97866.22;;;3.86;100.00
72721;BME280;60835;50.974;10.322;2023-02-01T08:56:04;97848.59;;;3.88;100.00
72721;BME280;60835;50.974;10.322;2023-02-01T08:58:31;97847.13;;;3.95;100.00
72721;BME280;60835;50.974;10.322;2023-02-01T09:01:02;97837.25;;;3.98;100.00
72721;BME280;60835;50.974;10.322;2023-02-01T09:03:29;97831.88;;;4.00;100.00
72721;BME280;60835;50.974;10.322;2023-02-01T09:06:00;97826.81;;;4.08;100.00
72721;BME280;60835;50.974;10.322;2023-02-01T09:08:27;97852.75;;;4.11;100.00
72721;BME280;60835;50.974;10.322;2023-02-01T09:10:58;97851.41;;;4.16;100.00
72721;BME280;60835;50.974;10.322;2023-02-01T09:13:28;97850.56;;;4.16;100.00
72721;BME280;60835;50.974;10.322;2023-02-01T09:15:55;97867.75;;;4.09;100.00
72721;BME280;60835;50.974;10.322;2023-02-01T09:18:21;97858.44;;;4.16;100.00
72721;BME280;60835;50.974;10.322;2023-02-01T09:20:48;97849.69;;;4.06;100.00
72721;BME280;60835;50.974;10.322;2023-02-01T09:23:14;97838.97;;;4.09;100.00
72721;BME280;60835;50.974;10.322;2023-02-01T09:25:41;97824.94;;;4.10;100.00
72721;BME280;60835;50.974;10.322;2023-02-01T09:28:07;97818.91;;;4.19;100.00
72721;BME280;60835;50.974;10.322;2023-02-01T09:30:36;97818.66;;;4.22;100.00
72721;BME280;60835;50.974;10.322;2023-02-01T09:33:03;97820.31;;;4.23;100.00
72721;BME280;60835;50.974;10.322;2023-02-01T09:35:30;97814.09;;;4.24;100.00
72721;BME280;60835;50.974;10.322;2023-02-01T09:37:56;97810.72;;;4.33;100.00
72721;BME280;60835;50.974;10.322;2023-02-01T09:40:23;97813.25;;;4.44;100.00
72721;BME280;60835;50.974;10.322;2023-02-01T09:43:37;97805.03;;;4.58;100.00
72721;BME280;60835;50.974;10.322;2023-02-01T09:46:18;97833.84;;;4.58;100.00
72721;BME280;60835;50.974;10.322;2023-02-01T09:48:47;97823.69;;;4.65;100.00
72721;BME280;60835;50.974;10.322;2023-02-01T09:51:20;97849.47;;;4.69;100.00
72721;BME280;60835;50.974;10.322;2023-02-01T09:54:17;97854.63;;;4.80;100.00
72721;BME280;60835;50.974;10.322;2023-02-01T09:59:29;97867.63;;;4.91;100.00
72721;BME280;60835;50.974;10.322;2023-02-01T10:01:58;97892.09;;;5.02;100.00
72721;BME280;60835;50.974;10.322;2023-02-01T10:04:26;97887.28;;;5.07;100.00
72721;BME280;60835;50.974;10.322;2023-02-01T10:10:23;97916.00;;;5.18;100.00
72721;BME280;60835;50.974;10.322;2023-02-01T10:18:38;97931.47;;;5.70;100.00
72721;BME280;60835;50.974;10.322;2023-02-01T10:21:31;97965.66;;;5.49;100.00
72721;BME280;60835;50.974;10.322;2023-02-01T10:24:20;97963.22;;;5.58;100.00
72721;BME280;60835;50.974;10.322;2023-02-01T10:26:59;97970.34;;;5.46;100.00
72721;BME280;60835;50.974;10.322;2023-02-01T10:29:34;97985.88;;;5.59;100.00
72721;BME280;60835;50.974;10.322;2023-02-01T10:32:02;97977.53;;;5.53;100.00
72721;BME280;60835;50.974;10.322;2023-02-01T10:34:34;97983.16;;;5.79;100.00
72721;BME280;60835;50.974;10.322;2023-02-01T10:37:11;97990.22;;;5.88;100.00
72721;BME280;60835;50.974;10.322;2023-02-01T10:39:39;97988.03;;;5.93;100.00
72721;BME280;60835;50.974;10.322;2023-02-01T10:42:07;97990.53;;;5.95;100.00
72721;BME280;60835;50.974;10.322;2023-02-01T10:44:40;97991.22;;;6.06;100.00
72721;BME280;60835;50.974;10.322;2023-02-01T10:47:10;97995.94;;;6.12;100.00
72721;BME280;60835;50.974;10.322;2023-02-01T10:52:52;98006.13;;;5.96;100.00
72721;BME280;60835;50.974;10.322;2023-02-01T10:55:37;98012.38;;;5.65;100.00
72721;BME280;60835;50.974;10.322;2023-02-01T10:58:14;98023.22;;;5.81;100.00
72721;BME280;60835;50.974;10.322;2023-02-01T11:00:47;98030.66;;;5.76;100.00
72721;BME280;60835;50.974;10.322;2023-02-01T11:06:03;98028.97;;;5.66;100.00
72721;BME280;60835;50.974;10.322;2023-02-01T11:08:42;98041.50;;;5.62;100.00
72721;BME280;60835;50.974;10.322;2023-02-01T11:11:10;98037.84;;;5.74;100.00
72721;BME280;60835;50.974;10.322;2023-02-01T11:13:39;98032.44;;;5.66;100.00
72721;BME280;60835;50.974;10.322;2023-02-01T11:16:11;98044.56;;;5.67;100.00
72721;BME280;60835;50.974;10.322;2023-02-01T11:18:39;98046.66;;;5.73;100.00
72721;BME280;60835;50.974;10.322;2023-02-01T11:21:07;98041.59;;;5.81;100.00
72721;BME280;60835;50.974;10.322;2023-02-01T11:23:41;98056.84;;;5.57;100.00
72721;BME280;60835;50.974;10.322;2023-02-01T11:26:15;98045.13;;;5.61;100.00
72721;BME280;60835;50.974;10.322;2023-02-01T11:28:53;98055.50;;;5.72;100.00
72721;BME280;60835;50.974;10.322;2023-02-01T11:31:21;98049.97;;;5.75;100.00
72721;BME280;60835;50.974;10.322;2023-02-01T11:33:52;98050.53;;;5.69;100.00
72721;BME280;60835;50.974;10.322;2023-02-01T11:36:32;98053.59;;;5.74;100.00
72721;BME280;60835;50.974;10.322;2023-02-01T11:41:43;98042.34;;;5.63;100.00
72721;BME280;60835;50.974;10.322;2023-02-01T11:44:22;98046.25;;;5.68;100.00
72721;BME280;60835;50.974;10.322;2023-02-01T11:46:49;98053.59;;;5.74;100.00
72721;BME280;60835;50.974;10.322;2023-02-01T11:49:20;98050.53;;;5.69;100.00
72721;BME280;60835;50.974;10.322;2023-02-01T11:54:55;98057.00;;;5.65;100.00
72721;BME280;60835;50.974;10.322;2023-02-01T11:57:39;98050.53;;;5.69;100.00
72721;BME280;60835;50.974;10.322;2023-02-01T12:00:23;98048.59;;;5.71;100.00
72721;BME280;60835;50.974;10.322;2023-02-01T12:03:15;98052.44;;;5.67;100.00
72721;BME280;60835;50.974;10.322;2023-02-01T12:14:18;98065.72;;;5.66;100.00
72721;BME280;60835;50.974;10.322;2023-02-01T12:16:54;98089.75;;;5.71;100.00
72721;BME280;60835;50.974;10.322;2023-02-01T12:19:40;98075.38;;;5.65;100.00
72721;BME280;60835;50.974;10.322;2023-02-01T12:25:46;98067.94;;;5.70;100.00
72721;BME280;60835;50.974;10.322;2023-02-01T12:36:08;98048.59;;;5.71;100.00
72721;BME280;60835;50.974;10.322;2023-02-01T12:41:37;98044.81;;;5.94;100.00
72721;BME280;60835;50.974;10.322;2023-02-01T12:44:17;98052.78;;;5.83;100.00
72721;BME280;60835;50.974;10.322;2023-02-01T12:46:52;98050.38;;;6.10;100.00
72721;BME280;60835;50.974;10.322;2023-02-01T12:52:03;98055.06;;;5.97;100.00
72721;BME280;60835;50.974;10.322;2023-02-01T12:54:38;98050.66;;;6.07;100.00
72721;BME280;60835;50.974;10.322;2023-02-01T12:57:12;98046.38;;;6.26;100.00
72721;BME280;60835;50.974;10.322;2023-02-01T12:59:50;98035.19;;;6.24;100.00
72721;BME280;60835;50.974;10.322;2023-02-01T13:02:25;98056.50;;;6.40;100.00
72721;BME280;60835;50.974;10.322;2023-02-01T13:07:56;98045.72;;;6.14;100.00
72721;BME280;60835;50.974;10.322;2023-02-01T13:10:38;98042.94;;;6.16;100.00
72721;BME280;60835;50.974;10.322;2023-02-01T13:15:44;98049.13;;;6.05;100.00
72721;BME280;60835;50.974;10.322;2023-02-01T13:18:16;98037.94;;;6.12;100.00
72721;BME280;60835;50.974;10.322;2023-02-01T13:20:58;98043.31;;;6.01;100.00
72721;BME280;60835;50.974;10.322;2023-02-01T13:23:31;98027.69;;;6.00;100.00
72721;BME280;60835;50.974;10.322;2023-02-01T13:25:59;98025.34;;;6.06;100.00
72721;BME280;60835;50.974;10.322;2023-02-01T13:28:34;98044.03;;;6.13;100.00
72721;BME280;60835;50.974;10.322;2023-02-01T13:34:09;98044.06;;;6.32;100.00
72721;BME280;60835;50.974;10.322;2023-02-01T13:37:01;98038.81;;;6.42;100.00
72721;BME280;60835;50.974;10.322;2023-02-01T13:44:59;98061.47;;;6.24;100.00
72721;BME280;60835;50.974;10.322;2023-02-01T13:47:33;98075.16;;;6.27;100.00
72721;BME280;60835;50.974;10.322;2023-02-01T13:50:18;98084.84;;;6.27;100.00
72721;BME280;60835;50.974;10.322;2023-02-01T13:52:53;98086.06;;;6.23;100.00
72721;BME280;60835;50.974;10.322;2023-02-01T13:57:49;98086.94;;;6.33;100.00
72721;BME280;60835;50.974;10.322;2023-02-01T14:10:59;98088.31;;;6.27;100.00
72721;BME280;60835;50.974;10.322;2023-02-01T14:13:30;98080.28;;;6.29;100.00
72721;BME280;60835;50.974;10.322;2023-02-01T14:21:18;98079.53;;;6.07;100.00
72721;BME280;60835;50.974;10.322;2023-02-01T14:26:25;98095.56;;;6.04;100.00
72721;BME280;60835;50.974;10.322;2023-02-01T14:28:58;98093.19;;;6.01;100.00
72721;BME280;60835;50.974;10.322;2023-02-01T14:37:25;98120.28;;;6.02;100.00
72721;BME280;60835;50.974;10.322;2023-02-01T14:50:39;98124.38;;;5.85;100.00
72721;BME280;60835;50.974;10.322;2023-02-01T14:55:47;98151.91;;;5.70;100.00
72721;BME280;60835;50.974;10.322;2023-02-01T14:58:23;98154.34;;;5.62;100.00
72721;BME280;60835;50.974;10.322;2023-02-01T15:01:03;98145.78;;;5.60;100.00
72721;BME280;60835;50.974;10.322;2023-02-01T15:06:23;98108.34;;;5.58;100.00
72721;BME280;60835;50.974;10.322;2023-02-01T15:08:57;98117.38;;;5.65;100.00
72721;BME280;60835;50.974;10.322;2023-02-01T15:11:25;98135.88;;;5.64;100.00
72721;BME280;60835;50.974;10.322;2023-02-01T15:13:52;98132.53;;;5.62;100.00
72721;BME280;60835;50.974;10.322;2023-02-01T15:16:23;98125.94;;;5.67;100.00